sensor_id;sensor_type;location;lat;lon;timestamp;P1;durP1;ratioP1;P2;durP2;ratioP2
7475;SDS011;3779;49.216;8.650;2022-10-16T00:01:45;2.45;;;1.45;;
7475;SDS011;3779;49.216;8.650;2022-10-16T00:04:31;1.73;;;1.30;;
7475;SDS011;3779;49.216;8.650;2022-10-16T00:07:17;1.40;;;1.30;;
7475;SDS011;3779;49.216;8.650;2022-10-16T00:10:04;3.42;;;1.30;;
7475;SDS011;3779;49.216;8.650;2022-10-16T00:12:50;2.47;;;1.30;;
7475;SDS011;3779;49.216;8.650;2022-10-16T00:15:36;3.47;;;1.38;;
7475;SDS011;3779;49.216;8.650;2022-10-16T00:18:22;2.20;;;1.33;;
7475;SDS011;3779;49.216;8.650;2022-10-16T00:21:10;3.47;;;1.48;;
7475;SDS011;3779;49.216;8.650;2022-10-16T00:24:17;4.68;;;1.98;;
7475;SDS011;3779;49.216;8.650;2022-10-16T00:27:03;2.90;;;1.60;;
7475;SDS011;3779;49.216;8.650;2022-10-16T00:29:49;5.05;;;1.50;;
7475;SDS011;3779;49.216;8.650;2022-10-16T00:32:36;3.03;;;1.48;;
7475;SDS011;3779;49.216;8.650;2022-10-16T00:35:22;4.30;;;1.55;;
7475;SDS011;3779;49.216;8.650;2022-10-16T00:38:08;2.55;;;1.30;;
7475;SDS011;3779;49.216;8.650;2022-10-16T00:40:54;3.90;;;1.23;;
7475;SDS011;3779;49.216;8.650;2022-10-16T00:46:40;4.07;;;1.40;;
7475;SDS011;3779;49.216;8.650;2022-10-16T00:49:27;1.52;;;1.27;;
7475;SDS011;3779;49.216;8.650;2022-10-16T00:52:13;3.35;;;1.40;;
7475;SDS011;3779;49.216;8.650;2022-10-16T00:55:00;1.98;;;1.40;;
7475;SDS011;3779;49.216;8.650;2022-10-16T00:57:49;2.38;;;1.60;;
7475;SDS011;3779;49.216;8.650;2022-10-16T01:00:36;1.50;;;1.40;;
7475;SDS011;3779;49.216;8.650;2022-10-16T01:03:24;1.40;;;1.30;;
7475;SDS011;3779;49.216;8.650;2022-10-16T01:09:31;3.97;;;1.40;;
7475;SDS011;3779;49.216;8.650;2022-10-16T01:15:29;1.75;;;1.33;;
7475;SDS011;3779;49.216;8.650;2022-10-16T01:18:43;4.72;;;1.83;;
7475;SDS011;3779;49.216;8.650;2022-10-16T01:21:31;3.80;;;1.40;;
7475;SDS011;3779;49.216;8.650;2022-10-16T01:24:31;4.03;;;1.50;;
7475;SDS011;3779;49.216;8.650;2022-10-16T01:27:25;2.08;;;1.40;;
7475;SDS011;3779;49.216;8.650;2022-10-16T01:30:21;2.40;;;1.20;;
7475;SDS011;3779;49.216;8.650;2022-10-16T01:33:54;1.20;;;1.10;;
7475;SDS011;3779;49.216;8.650;2022-10-16T01:36:25;2.55;;;1.30;;
7475;SDS011;3779;49.216;8.650;2022-10-16T01:39:16;1.50;;;1.40;;
7475;SDS011;3779;49.216;8.650;2022-10-16T01:42:16;1.77;;;1.40;;
7475;SDS011;3779;49.216;8.650;2022-10-16T01:45:06;1.13;;;1.08;;
7475;SDS011;3779;49.216;8.650;2022-10-16T01:47:56;1.55;;;1.20;;
7475;SDS011;3779;49.216;8.650;2022-10-16T01:50:48;1.27;;;1.17;;
7475;SDS011;3779;49.216;8.650;2022-10-16T01:53:48;3.03;;;1.17;;
7475;SDS011;3779;49.216;8.650;2022-10-16T01:56:37;3.38;;;1.15;;
7475;SDS011;3779;49.216;8.650;2022-10-16T01:59:25;1.70;;;1.02;;
7475;SDS011;3779;49.216;8.650;2022-10-16T02:02:13;3.22;;;1.30;;
7475;SDS011;3779;49.216;8.650;2022-10-16T02:05:34;4.85;;;1.10;;
7475;SDS011;3779;49.216;8.650;2022-10-16T02:08:18;1.67;;;1.00;;
7475;SDS011;3779;49.216;8.650;2022-10-16T02:11:05;1.30;;;1.15;;
7475;SDS011;3779;49.216;8.650;2022-10-16T02:13:53;1.27;;;1.10;;
7475;SDS011;3779;49.216;8.650;2022-10-16T02:16:45;1.88;;;1.10;;
7475;SDS011;3779;49.216;8.650;2022-10-16T02:19:31;1.00;;;1.00;;
7475;SDS011;3779;49.216;8.650;2022-10-16T02:28:19;1.25;;;1.10;;
7475;SDS011;3779;49.216;8.650;2022-10-16T02:31:11;1.10;;;1.00;;
7475;SDS011;3779;49.216;8.650;2022-10-16T02:34:01;1.85;;;1.00;;
7475;SDS011;3779;49.216;8.650;2022-10-16T02:36:50;2.25;;;1.00;;
7475;SDS011;3779;49.216;8.650;2022-10-16T02:39:37;2.47;;;1.25;;
7475;SDS011;3779;49.216;8.650;2022-10-16T02:42:35;1.98;;;1.25;;
7475;SDS011;3779;49.216;8.650;2022-10-16T02:45:22;1.55;;;1.45;;
7475;SDS011;3779;49.216;8.650;2022-10-16T02:48:09;2.00;;;1.65;;
7475;SDS011;3779;49.216;8.650;2022-10-16T02:50:55;2.05;;;1.10;;
7475;SDS011;3779;49.216;8.650;2022-10-16T02:53:42;3.60;;;1.15;;
7475;SDS011;3779;49.216;8.650;2022-10-16T02:56:28;1.42;;;1.13;;
7475;SDS011;3779;49.216;8.650;2022-10-16T02:59:15;2.83;;;1.40;;
7475;SDS011;3779;49.216;8.650;2022-10-16T03:02:01;2.72;;;1.27;;
7475;SDS011;3779;49.216;8.650;2022-10-16T03:04:47;3.95;;;1.35;;
7475;SDS011;3779;49.216;8.650;2022-10-16T03:07:32;2.90;;;1.23;;
7475;SDS011;3779;49.216;8.650;2022-10-16T03:10:18;2.80;;;1.33;;
7475;SDS011;3779;49.216;8.650;2022-10-16T03:13:04;4.18;;;1.25;;
7475;SDS011;3779;49.216;8.650;2022-10-16T03:15:50;2.55;;;1.20;;
7475;SDS011;3779;49.216;8.650;2022-10-16T03:18:36;3.28;;;1.17;;
7475;SDS011;3779;49.216;8.650;2022-10-16T03:21:22;1.52;;;1.30;;
7475;SDS011;3779;49.216;8.650;2022-10-16T03:24:08;1.88;;;1.23;;
7475;SDS011;3779;49.216;8.650;2022-10-16T03:26:54;1.67;;;1.33;;
7475;SDS011;3779;49.216;8.650;2022-10-16T03:29:40;2.55;;;1.40;;
7475;SDS011;3779;49.216;8.650;2022-10-16T03:32:26;1.88;;;1.30;;
7475;SDS011;3779;49.216;8.650;2022-10-16T03:35:13;3.05;;;1.45;;
7475;SDS011;3779;49.216;8.650;2022-10-16T03:37:59;3.97;;;1.55;;
7475;SDS011;3779;49.216;8.650;2022-10-16T03:40:45;1.40;;;1.30;;
7475;SDS011;3779;49.216;8.650;2022-10-16T03:43:31;2.17;;;1.60;;
7475;SDS011;3779;49.216;8.650;2022-10-16T03:46:17;3.35;;;1.30;;
7475;SDS011;3779;49.216;8.650;2022-10-16T03:49:03;2.97;;;1.40;;
7475;SDS011;3779;49.216;8.650;2022-10-16T03:51:49;3.25;;;1.40;;
7475;SDS011;3779;49.216;8.650;2022-10-16T03:54:35;3.05;;;1.45;;
7475;SDS011;3779;49.216;8.650;2022-10-16T03:57:20;3.75;;;1.50;;
7475;SDS011;3779;49.216;8.650;2022-10-16T04:00:06;6.82;;;1.52;;
7475;SDS011;3779;49.216;8.650;2022-10-16T04:02:57;3.80;;;1.60;;
7475;SDS011;3779;49.216;8.650;2022-10-16T04:05:43;2.28;;;1.40;;
7475;SDS011;3779;49.216;8.650;2022-10-16T04:08:29;1.50;;;1.40;;
7475;SDS011;3779;49.216;8.650;2022-10-16T04:11:15;3.13;;;1.63;;
7475;SDS011;3779;49.216;8.650;2022-10-16T04:14:01;2.08;;;1.50;;
7475;SDS011;3779;49.216;8.650;2022-10-16T04:16:47;2.80;;;1.30;;
7475;SDS011;3779;49.216;8.650;2022-10-16T04:19:32;2.58;;;1.20;;
7475;SDS011;3779;49.216;8.650;2022-10-16T04:22:18;3.95;;;1.23;;
7475;SDS011;3779;49.216;8.650;2022-10-16T04:25:04;1.48;;;1.15;;
7475;SDS011;3779;49.216;8.650;2022-10-16T04:27:52;5.07;;;1.25;;
7475;SDS011;3779;49.216;8.650;2022-10-16T04:30:39;1.58;;;1.48;;
7475;SDS011;3779;49.216;8.650;2022-10-16T04:33:24;2.22;;;1.20;;
7475;SDS011;3779;49.216;8.650;2022-10-16T04:36:10;1.30;;;1.20;;
7475;SDS011;3779;49.216;8.650;2022-10-16T04:38:56;1.55;;;1.23;;
7475;SDS011;3779;49.216;8.650;2022-10-16T04:41:42;4.15;;;1.58;;
7475;SDS011;3779;49.216;8.650;2022-10-16T04:44:28;1.50;;;1.20;;
7475;SDS011;3779;49.216;8.650;2022-10-16T04:47:14;2.10;;;1.23;;
7475;SDS011;3779;49.216;8.650;2022-10-16T04:50:00;2.47;;;1.58;;
7475;SDS011;3779;49.216;8.650;2022-10-16T04:52:47;1.67;;;1.45;;
7475;SDS011;3779;49.216;8.650;2022-10-16T04:55:34;3.38;;;1.58;;
7475;SDS011;3779;49.216;8.650;2022-10-16T04:58:20;6.75;;;1.40;;
7475;SDS011;3779;49.216;8.650;2022-10-16T05:01:06;2.75;;;1.50;;
7475;SDS011;3779;49.216;8.650;2022-10-16T05:03:52;8.82;;;1.58;;
7475;SDS011;3779;49.216;8.650;2022-10-16T05:06:38;2.55;;;1.33;;
7475;SDS011;3779;49.216;8.650;2022-10-16T05:09:24;1.98;;;1.33;;
7475;SDS011;3779;49.216;8.650;2022-10-16T05:12:10;1.50;;;1.40;;
7475;SDS011;3779;49.216;8.650;2022-10-16T05:14:56;4.70;;;1.35;;
7475;SDS011;3779;49.216;8.650;2022-10-16T05:17:43;1.98;;;1.20;;
7475;SDS011;3779;49.216;8.650;2022-10-16T05:20:29;1.88;;;1.00;;
7475;SDS011;3779;49.216;8.650;2022-10-16T05:23:15;4.50;;;1.40;;
7475;SDS011;3779;49.216;8.650;2022-10-16T05:26:01;3.53;;;1.33;;
7475;SDS011;3779;49.216;8.650;2022-10-16T05:28:48;2.13;;;1.33;;
7475;SDS011;3779;49.216;8.650;2022-10-16T05:31:35;2.33;;;1.17;;
7475;SDS011;3779;49.216;8.650;2022-10-16T05:34:21;2.38;;;1.50;;
7475;SDS011;3779;49.216;8.650;2022-10-16T05:37:07;2.58;;;1.50;;
7475;SDS011;3779;49.216;8.650;2022-10-16T05:39:53;3.40;;;1.45;;
7475;SDS011;3779;49.216;8.650;2022-10-16T05:42:39;2.42;;;1.45;;
7475;SDS011;3779;49.216;8.650;2022-10-16T05:45:25;2.88;;;1.42;;
7475;SDS011;3779;49.216;8.650;2022-10-16T05:48:11;4.38;;;1.20;;
7475;SDS011;3779;49.216;8.650;2022-10-16T05:50:58;4.15;;;1.25;;
7475;SDS011;3779;49.216;8.650;2022-10-16T05:53:48;2.35;;;1.00;;
7475;SDS011;3779;49.216;8.650;2022-10-16T05:56:34;4.15;;;1.13;;
7475;SDS011;3779;49.216;8.650;2022-10-16T05:59:20;6.28;;;1.40;;
7475;SDS011;3779;49.216;8.650;2022-10-16T06:02:08;2.13;;;1.23;;
7475;SDS011;3779;49.216;8.650;2022-10-16T06:04:58;2.43;;;1.23;;
7475;SDS011;3779;49.216;8.650;2022-10-16T06:07:44;2.22;;;1.30;;
7475;SDS011;3779;49.216;8.650;2022-10-16T06:10:30;5.45;;;1.50;;
7475;SDS011;3779;49.216;8.650;2022-10-16T06:13:16;2.70;;;1.30;;
7475;SDS011;3779;49.216;8.650;2022-10-16T06:16:02;3.22;;;1.25;;
7475;SDS011;3779;49.216;8.650;2022-10-16T06:18:50;2.05;;;1.33;;
7475;SDS011;3779;49.216;8.650;2022-10-16T06:21:37;3.45;;;1.30;;
7475;SDS011;3779;49.216;8.650;2022-10-16T06:24:23;2.65;;;1.40;;
7475;SDS011;3779;49.216;8.650;2022-10-16T06:27:09;2.47;;;1.30;;
7475;SDS011;3779;49.216;8.650;2022-10-16T06:29:55;2.95;;;1.58;;
7475;SDS011;3779;49.216;8.650;2022-10-16T06:32:41;3.88;;;1.63;;
7475;SDS011;3779;49.216;8.650;2022-10-16T06:35:27;3.83;;;1.40;;
7475;SDS011;3779;49.216;8.650;2022-10-16T06:38:14;2.75;;;1.50;;
7475;SDS011;3779;49.216;8.650;2022-10-16T06:41:00;4.97;;;1.42;;
7475;SDS011;3779;49.216;8.650;2022-10-16T06:43:46;4.90;;;1.70;;
7475;SDS011;3779;49.216;8.650;2022-10-16T06:46:33;2.30;;;1.40;;
7475;SDS011;3779;49.216;8.650;2022-10-16T06:49:19;3.05;;;1.95;;
7475;SDS011;3779;49.216;8.650;2022-10-16T06:52:08;5.18;;;1.55;;
7475;SDS011;3779;49.216;8.650;2022-10-16T06:54:54;4.85;;;1.60;;
7475;SDS011;3779;49.216;8.650;2022-10-16T06:57:40;4.28;;;1.40;;
7475;SDS011;3779;49.216;8.650;2022-10-16T07:00:26;3.92;;;1.25;;
7475;SDS011;3779;49.216;8.650;2022-10-16T07:03:12;4.47;;;1.25;;
7475;SDS011;3779;49.216;8.650;2022-10-16T07:06:02;3.08;;;2.30;;
7475;SDS011;3779;49.216;8.650;2022-10-16T07:08:49;4.88;;;1.40;;
7475;SDS011;3779;49.216;8.650;2022-10-16T07:11:36;3.03;;;1.20;;
7475;SDS011;3779;49.216;8.650;2022-10-16T07:14:23;2.40;;;1.10;;
7475;SDS011;3779;49.216;8.650;2022-10-16T07:17:10;3.65;;;1.50;;
7475;SDS011;3779;49.216;8.650;2022-10-16T07:19:56;1.73;;;1.42;;
7475;SDS011;3779;49.216;8.650;2022-10-16T07:22:42;2.55;;;1.35;;
7475;SDS011;3779;49.216;8.650;2022-10-16T07:25:27;1.40;;;1.17;;
7475;SDS011;3779;49.216;8.650;2022-10-16T07:28:13;1.50;;;1.40;;
7475;SDS011;3779;49.216;8.650;2022-10-16T07:31:00;3.33;;;1.50;;
7475;SDS011;3779;49.216;8.650;2022-10-16T07:33:51;3.35;;;1.50;;
7475;SDS011;3779;49.216;8.650;2022-10-16T07:36:37;4.38;;;1.35;;
7475;SDS011;3779;49.216;8.650;2022-10-16T07:39:23;3.05;;;1.60;;
7475;SDS011;3779;49.216;8.650;2022-10-16T07:42:08;2.28;;;1.23;;
7475;SDS011;3779;49.216;8.650;2022-10-16T07:44:54;6.15;;;2.03;;
7475;SDS011;3779;49.216;8.650;2022-10-16T07:47:40;2.28;;;1.65;;
7475;SDS011;3779;49.216;8.650;2022-10-16T07:50:26;3.38;;;1.48;;
7475;SDS011;3779;49.216;8.650;2022-10-16T07:53:12;3.58;;;1.42;;
7475;SDS011;3779;49.216;8.650;2022-10-16T07:56:00;1.63;;;1.50;;
7475;SDS011;3779;49.216;8.650;2022-10-16T07:58:47;2.75;;;1.63;;
7475;SDS011;3779;49.216;8.650;2022-10-16T08:01:34;3.47;;;1.33;;
7475;SDS011;3779;49.216;8.650;2022-10-16T08:04:20;2.55;;;1.60;;
7475;SDS011;3779;49.216;8.650;2022-10-16T08:07:07;2.45;;;1.45;;
7475;SDS011;3779;49.216;8.650;2022-10-16T08:09:54;4.97;;;1.50;;
7475;SDS011;3779;49.216;8.650;2022-10-16T08:12:35;3.80;;;1.50;;
7475;SDS011;3779;49.216;8.650;2022-10-16T08:15:01;6.35;;;1.55;;
7475;SDS011;3779;49.216;8.650;2022-10-16T08:17:27;3.25;;;1.60;;
7475;SDS011;3779;49.216;8.650;2022-10-16T08:20:13;2.67;;;1.50;;
7475;SDS011;3779;49.216;8.650;2022-10-16T08:22:59;2.05;;;1.40;;
7475;SDS011;3779;49.216;8.650;2022-10-16T08:25:46;3.83;;;1.67;;
7475;SDS011;3779;49.216;8.650;2022-10-16T08:28:32;2.35;;;1.45;;
7475;SDS011;3779;49.216;8.650;2022-10-16T08:31:17;2.15;;;1.20;;
7475;SDS011;3779;49.216;8.650;2022-10-16T08:34:04;1.70;;;1.40;;
7475;SDS011;3779;49.216;8.650;2022-10-16T08:36:49;3.10;;;1.55;;
7475;SDS011;3779;49.216;8.650;2022-10-16T08:39:39;5.07;;;1.73;;
7475;SDS011;3779;49.216;8.650;2022-10-16T08:48:52;1.85;;;1.52;;
7475;SDS011;3779;49.216;8.650;2022-10-16T08:51:39;1.50;;;1.40;;
7475;SDS011;3779;49.216;8.650;2022-10-16T08:54:31;1.70;;;1.55;;
7475;SDS011;3779;49.216;8.650;2022-10-16T08:57:25;1.85;;;1.48;;
7475;SDS011;3779;49.216;8.650;2022-10-16T09:00:16;2.22;;;1.33;;
7475;SDS011;3779;49.216;8.650;2022-10-16T09:03:06;3.75;;;1.40;;
7475;SDS011;3779;49.216;8.650;2022-10-16T09:12:19;2.10;;;1.70;;
7475;SDS011;3779;49.216;8.650;2022-10-16T09:18:12;5.55;;;1.70;;
7475;SDS011;3779;49.216;8.650;2022-10-16T09:24:07;2.55;;;1.10;;
7475;SDS011;3779;49.216;8.650;2022-10-16T09:27:02;4.90;;;1.50;;
7475;SDS011;3779;49.216;8.650;2022-10-16T09:29:48;1.10;;;1.00;;
7475;SDS011;3779;49.216;8.650;2022-10-16T09:32:34;0.90;;;0.90;;
7475;SDS011;3779;49.216;8.650;2022-10-16T09:35:20;1.35;;;0.90;;
7475;SDS011;3779;49.216;8.650;2022-10-16T09:38:30;7.13;;;1.50;;
7475;SDS011;3779;49.216;8.650;2022-10-16T09:41:19;1.30;;;1.20;;
7475;SDS011;3779;49.216;8.650;2022-10-16T09:44:21;1.65;;;1.10;;
7475;SDS011;3779;49.216;8.650;2022-10-16T09:47:13;2.47;;;1.00;;
7475;SDS011;3779;49.216;8.650;2022-10-16T09:50:15;1.30;;;1.20;;
7475;SDS011;3779;49.216;8.650;2022-10-16T09:53:11;1.40;;;1.25;;
7475;SDS011;3779;49.216;8.650;2022-10-16T09:55:58;1.35;;;1.10;;
7475;SDS011;3779;49.216;8.650;2022-10-16T09:58:49;3.17;;;1.27;;
7475;SDS011;3779;49.216;8.650;2022-10-16T10:01:40;4.88;;;1.17;;
7475;SDS011;3779;49.216;8.650;2022-10-16T10:04:26;1.00;;;1.00;;
7475;SDS011;3779;49.216;8.650;2022-10-16T10:07:25;1.73;;;1.10;;
7475;SDS011;3779;49.216;8.650;2022-10-16T10:10:20;3.35;;;1.50;;
7475;SDS011;3779;49.216;8.650;2022-10-16T10:13:18;1.52;;;1.30;;
7475;SDS011;3779;49.216;8.650;2022-10-16T10:16:05;2.30;;;1.25;;
7475;SDS011;3779;49.216;8.650;2022-10-16T10:19:01;1.25;;;1.00;;
7475;SDS011;3779;49.216;8.650;2022-10-16T10:21:47;2.45;;;1.33;;
7475;SDS011;3779;49.216;8.650;2022-10-16T10:24:33;2.78;;;1.40;;
7475;SDS011;3779;49.216;8.650;2022-10-16T10:27:19;1.60;;;1.10;;
7475;SDS011;3779;49.216;8.650;2022-10-16T10:39:13;4.30;;;1.40;;
7475;SDS011;3779;49.216;8.650;2022-10-16T10:42:48;4.65;;;1.65;;
7475;SDS011;3779;49.216;8.650;2022-10-16T10:46:02;1.73;;;1.40;;
7475;SDS011;3779;49.216;8.650;2022-10-16T10:51:25;1.42;;;1.15;;
7475;SDS011;3779;49.216;8.650;2022-10-16T10:57:29;1.75;;;1.30;;
7475;SDS011;3779;49.216;8.650;2022-10-16T11:00:45;2.13;;;1.10;;
7475;SDS011;3779;49.216;8.650;2022-10-16T11:06:46;5.38;;;1.52;;
7475;SDS011;3779;49.216;8.650;2022-10-16T11:09:40;3.35;;;1.77;;
7475;SDS011;3779;49.216;8.650;2022-10-16T11:12:34;2.67;;;1.40;;
7475;SDS011;3779;49.216;8.650;2022-10-16T11:15:29;2.05;;;1.60;;
7475;SDS011;3779;49.216;8.650;2022-10-16T11:18:30;1.90;;;1.40;;
7475;SDS011;3779;49.216;8.650;2022-10-16T11:21:31;1.85;;;1.50;;
7475;SDS011;3779;49.216;8.650;2022-10-16T11:24:33;2.35;;;1.27;;
7475;SDS011;3779;49.216;8.650;2022-10-16T11:27:37;2.97;;;1.80;;
7475;SDS011;3779;49.216;8.650;2022-10-16T11:30:28;1.40;;;1.30;;
7475;SDS011;3779;49.216;8.650;2022-10-16T11:39:37;1.65;;;1.55;;
7475;SDS011;3779;49.216;8.650;2022-10-16T11:42:30;3.47;;;1.50;;
7475;SDS011;3779;49.216;8.650;2022-10-16T11:45:36;2.20;;;1.45;;
7475;SDS011;3779;49.216;8.650;2022-10-16T11:51:22;1.80;;;1.40;;
7475;SDS011;3779;49.216;8.650;2022-10-16T11:57:21;2.95;;;1.60;;
7475;SDS011;3779;49.216;8.650;2022-10-16T12:00:21;1.75;;;1.60;;
7475;SDS011;3779;49.216;8.650;2022-10-16T12:08:46;2.30;;;1.60;;
7475;SDS011;3779;49.216;8.650;2022-10-16T12:11:35;1.40;;;1.30;;
7475;SDS011;3779;49.216;8.650;2022-10-16T12:17:24;1.67;;;1.58;;
7475;SDS011;3779;49.216;8.650;2022-10-16T12:20:31;3.17;;;1.40;;
7475;SDS011;3779;49.216;8.650;2022-10-16T12:23:20;3.25;;;1.42;;
7475;SDS011;3779;49.216;8.650;2022-10-16T12:26:10;4.90;;;1.50;;
7475;SDS011;3779;49.216;8.650;2022-10-16T12:28:57;2.13;;;1.40;;
7475;SDS011;3779;49.216;8.650;2022-10-16T12:35:29;4.90;;;1.85;;
7475;SDS011;3779;49.216;8.650;2022-10-16T12:38:21;2.90;;;1.73;;
7475;SDS011;3779;49.216;8.650;2022-10-16T12:41:24;2.63;;;1.45;;
7475;SDS011;3779;49.216;8.650;2022-10-16T12:44:23;3.80;;;1.50;;
7475;SDS011;3779;49.216;8.650;2022-10-16T12:50:23;1.55;;;1.45;;
7475;SDS011;3779;49.216;8.650;2022-10-16T12:56:25;2.00;;;1.40;;
7475;SDS011;3779;49.216;8.650;2022-10-16T13:05:39;1.67;;;1.50;;
7475;SDS011;3779;49.216;8.650;2022-10-16T13:29:58;2.47;;;1.50;;
7475;SDS011;3779;49.216;8.650;2022-10-16T13:32:57;2.50;;;1.30;;
7475;SDS011;3779;49.216;8.650;2022-10-16T13:35:53;3.58;;;1.58;;
7475;SDS011;3779;49.216;8.650;2022-10-16T13:38:40;1.63;;;1.50;;
7475;SDS011;3779;49.216;8.650;2022-10-16T13:41:26;1.77;;;1.45;;
7475;SDS011;3779;49.216;8.650;2022-10-16T13:44:17;1.40;;;1.30;;
7475;SDS011;3779;49.216;8.650;2022-10-16T13:47:05;2.10;;;1.38;;
7475;SDS011;3779;49.216;8.650;2022-10-16T13:52:49;2.92;;;1.38;;
7475;SDS011;3779;49.216;8.650;2022-10-16T13:55:35;6.68;;;1.77;;
7475;SDS011;3779;49.216;8.650;2022-10-16T13:58:21;4.50;;;1.80;;
7475;SDS011;3779;49.216;8.650;2022-10-16T14:01:17;1.48;;;1.38;;
7475;SDS011;3779;49.216;8.650;2022-10-16T14:04:09;1.40;;;1.30;;
7475;SDS011;3779;49.216;8.650;2022-10-16T14:06:57;1.50;;;1.40;;
7475;SDS011;3779;49.216;8.650;2022-10-16T14:09:47;2.55;;;1.50;;
7475;SDS011;3779;49.216;8.650;2022-10-16T14:12:35;2.35;;;1.45;;
7475;SDS011;3779;49.216;8.650;2022-10-16T14:15:21;4.80;;;1.73;;
7475;SDS011;3779;49.216;8.650;2022-10-16T14:18:07;1.52;;;1.20;;
7475;SDS011;3779;49.216;8.650;2022-10-16T14:21:11;1.38;;;1.27;;
7475;SDS011;3779;49.216;8.650;2022-10-16T14:23:59;5.25;;;1.90;;
7475;SDS011;3779;49.216;8.650;2022-10-16T14:26:57;1.65;;;1.48;;
7475;SDS011;3779;49.216;8.650;2022-10-16T14:29:43;2.95;;;1.55;;
7475;SDS011;3779;49.216;8.650;2022-10-16T14:32:29;3.38;;;1.42;;
7475;SDS011;3779;49.216;8.650;2022-10-16T14:35:25;1.65;;;1.30;;
7475;SDS011;3779;49.216;8.650;2022-10-16T14:38:19;2.22;;;1.30;;
7475;SDS011;3779;49.216;8.650;2022-10-16T14:41:06;3.25;;;1.50;;
7475;SDS011;3779;49.216;8.650;2022-10-16T14:43:56;2.80;;;1.45;;
7475;SDS011;3779;49.216;8.650;2022-10-16T14:46:46;1.52;;;1.25;;
7475;SDS011;3779;49.216;8.650;2022-10-16T14:49:32;3.47;;;1.40;;
7475;SDS011;3779;49.216;8.650;2022-10-16T14:52:18;2.55;;;1.55;;
7475;SDS011;3779;49.216;8.650;2022-10-16T14:55:04;2.22;;;1.42;;
7475;SDS011;3779;49.216;8.650;2022-10-16T14:57:50;2.88;;;1.50;;
7475;SDS011;3779;49.216;8.650;2022-10-16T15:00:36;6.03;;;1.48;;
7475;SDS011;3779;49.216;8.650;2022-10-16T15:03:22;2.10;;;1.50;;
7475;SDS011;3779;49.216;8.650;2022-10-16T15:06:09;1.80;;;1.38;;
7475;SDS011;3779;49.216;8.650;2022-10-16T15:08:57;1.92;;;1.25;;
7475;SDS011;3779;49.216;8.650;2022-10-16T15:11:43;3.85;;;1.42;;
7475;SDS011;3779;49.216;8.650;2022-10-16T15:14:29;1.67;;;1.38;;
7475;SDS011;3779;49.216;8.650;2022-10-16T15:17:15;1.60;;;1.40;;
7475;SDS011;3779;49.216;8.650;2022-10-16T15:20:01;3.13;;;2.83;;
7475;SDS011;3779;49.216;8.650;2022-10-16T15:22:47;1.75;;;1.45;;
7475;SDS011;3779;49.216;8.650;2022-10-16T15:25:37;1.95;;;1.30;;
7475;SDS011;3779;49.216;8.650;2022-10-16T15:28:26;3.03;;;1.70;;
7475;SDS011;3779;49.216;8.650;2022-10-16T15:31:12;3.97;;;1.50;;
7475;SDS011;3779;49.216;8.650;2022-10-16T15:33:58;1.60;;;1.50;;
7475;SDS011;3779;49.216;8.650;2022-10-16T15:36:49;2.80;;;1.55;;
7475;SDS011;3779;49.216;8.650;2022-10-16T15:39:35;2.80;;;1.90;;
7475;SDS011;3779;49.216;8.650;2022-10-16T15:42:21;2.88;;;2.40;;
7475;SDS011;3779;49.216;8.650;2022-10-16T15:45:08;2.42;;;1.88;;
7475;SDS011;3779;49.216;8.650;2022-10-16T15:47:55;3.80;;;1.90;;
7475;SDS011;3779;49.216;8.650;2022-10-16T15:50:41;3.25;;;2.00;;
7475;SDS011;3779;49.216;8.650;2022-10-16T15:53:27;3.08;;;1.98;;
7475;SDS011;3779;49.216;8.650;2022-10-16T15:56:13;2.05;;;1.63;;
7475;SDS011;3779;49.216;8.650;2022-10-16T15:59:00;3.20;;;2.05;;
7475;SDS011;3779;49.216;8.650;2022-10-16T16:01:47;1.90;;;1.80;;
7475;SDS011;3779;49.216;8.650;2022-10-16T16:04:33;2.53;;;1.70;;
7475;SDS011;3779;49.216;8.650;2022-10-16T16:07:18;2.25;;;1.70;;
7475;SDS011;3779;49.216;8.650;2022-10-16T16:10:05;4.32;;;2.05;;
7475;SDS011;3779;49.216;8.650;2022-10-16T16:12:53;4.35;;;2.08;;
7475;SDS011;3779;49.216;8.650;2022-10-16T16:15:39;3.53;;;2.05;;
7475;SDS011;3779;49.216;8.650;2022-10-16T16:18:25;2.28;;;1.70;;
7475;SDS011;3779;49.216;8.650;2022-10-16T16:21:12;4.57;;;2.50;;
7475;SDS011;3779;49.216;8.650;2022-10-16T16:23:58;2.92;;;2.10;;
7475;SDS011;3779;49.216;8.650;2022-10-16T16:26:44;13.93;;;2.70;;
7475;SDS011;3779;49.216;8.650;2022-10-16T16:29:30;2.65;;;2.10;;
7475;SDS011;3779;49.216;8.650;2022-10-16T16:32:16;3.30;;;1.70;;
7475;SDS011;3779;49.216;8.650;2022-10-16T16:35:02;2.60;;;2.28;;
7475;SDS011;3779;49.216;8.650;2022-10-16T16:37:49;5.72;;;2.35;;
7475;SDS011;3779;49.216;8.650;2022-10-16T16:40:35;2.17;;;1.85;;
7475;SDS011;3779;49.216;8.650;2022-10-16T16:43:24;5.05;;;2.38;;
7475;SDS011;3779;49.216;8.650;2022-10-16T16:46:11;3.53;;;2.58;;
7475;SDS011;3779;49.216;8.650;2022-10-16T16:48:57;4.30;;;2.70;;
7475;SDS011;3779;49.216;8.650;2022-10-16T16:51:44;3.28;;;2.33;;
7475;SDS011;3779;49.216;8.650;2022-10-16T16:54:30;3.22;;;2.80;;
7475;SDS011;3779;49.216;8.650;2022-10-16T16:57:16;5.63;;;2.65;;
7475;SDS011;3779;49.216;8.650;2022-10-16T17:00:06;4.03;;;2.90;;
7475;SDS011;3779;49.216;8.650;2022-10-16T17:02:53;2.35;;;2.17;;
7475;SDS011;3779;49.216;8.650;2022-10-16T17:05:38;5.95;;;2.90;;
7475;SDS011;3779;49.216;8.650;2022-10-16T17:08:24;7.03;;;3.00;;
7475;SDS011;3779;49.216;8.650;2022-10-16T17:11:15;5.35;;;2.40;;
7475;SDS011;3779;49.216;8.650;2022-10-16T17:14:05;4.18;;;3.10;;
7475;SDS011;3779;49.216;8.650;2022-10-16T17:16:53;4.22;;;2.90;;
7475;SDS011;3779;49.216;8.650;2022-10-16T17:19:39;3.08;;;2.70;;
7475;SDS011;3779;49.216;8.650;2022-10-16T17:22:25;4.28;;;2.80;;
7475;SDS011;3779;49.216;8.650;2022-10-16T17:25:10;2.83;;;2.10;;
7475;SDS011;3779;49.216;8.650;2022-10-16T17:27:56;1.95;;;1.63;;
7475;SDS011;3779;49.216;8.650;2022-10-16T17:30:42;4.43;;;2.95;;
7475;SDS011;3779;49.216;8.650;2022-10-16T17:33:28;4.80;;;2.63;;
7475;SDS011;3779;49.216;8.650;2022-10-16T17:36:14;2.40;;;2.20;;
7475;SDS011;3779;49.216;8.650;2022-10-16T17:39:02;2.42;;;2.20;;
7475;SDS011;3779;49.216;8.650;2022-10-16T17:41:50;4.10;;;3.80;;
7475;SDS011;3779;49.216;8.650;2022-10-16T17:44:36;4.32;;;3.03;;
7475;SDS011;3779;49.216;8.650;2022-10-16T17:47:22;5.75;;;3.53;;
7475;SDS011;3779;49.216;8.650;2022-10-16T17:50:08;2.85;;;2.40;;
7475;SDS011;3779;49.216;8.650;2022-10-16T17:52:54;4.20;;;2.55;;
7475;SDS011;3779;49.216;8.650;2022-10-16T17:55:40;3.53;;;2.25;;
7475;SDS011;3779;49.216;8.650;2022-10-16T17:58:27;7.15;;;2.30;;
7475;SDS011;3779;49.216;8.650;2022-10-16T18:01:15;9.25;;;3.00;;
7475;SDS011;3779;49.216;8.650;2022-10-16T18:04:09;12.70;;;3.38;;
7475;SDS011;3779;49.216;8.650;2022-10-16T18:06:58;5.88;;;2.90;;
7475;SDS011;3779;49.216;8.650;2022-10-16T18:09:44;8.93;;;3.58;;
7475;SDS011;3779;49.216;8.650;2022-10-16T18:12:30;3.95;;;2.47;;
7475;SDS011;3779;49.216;8.650;2022-10-16T18:15:17;4.72;;;2.25;;
7475;SDS011;3779;49.216;8.650;2022-10-16T18:18:03;3.17;;;2.47;;
7475;SDS011;3779;49.216;8.650;2022-10-16T18:20:59;5.45;;;2.78;;
7475;SDS011;3779;49.216;8.650;2022-10-16T18:23:47;2.78;;;2.20;;
7475;SDS011;3779;49.216;8.650;2022-10-16T18:26:33;7.68;;;2.63;;
7475;SDS011;3779;49.216;8.650;2022-10-16T18:29:19;4.75;;;2.20;;
7475;SDS011;3779;49.216;8.650;2022-10-16T18:32:05;3.05;;;2.58;;
7475;SDS011;3779;49.216;8.650;2022-10-16T18:34:51;7.32;;;2.60;;
7475;SDS011;3779;49.216;8.650;2022-10-16T18:37:38;4.00;;;2.58;;
7475;SDS011;3779;49.216;8.650;2022-10-16T18:40:24;7.57;;;2.90;;
7475;SDS011;3779;49.216;8.650;2022-10-16T18:43:10;6.32;;;3.38;;
7475;SDS011;3779;49.216;8.650;2022-10-16T18:45:59;3.20;;;2.40;;
7475;SDS011;3779;49.216;8.650;2022-10-16T18:48:56;3.50;;;2.20;;
7475;SDS011;3779;49.216;8.650;2022-10-16T18:51:42;5.18;;;2.30;;
7475;SDS011;3779;49.216;8.650;2022-10-16T18:54:29;3.58;;;2.10;;
7475;SDS011;3779;49.216;8.650;2022-10-16T18:57:16;3.10;;;2.47;;
7475;SDS011;3779;49.216;8.650;2022-10-16T19:00:02;4.18;;;2.40;;
7475;SDS011;3779;49.216;8.650;2022-10-16T19:02:48;5.13;;;2.58;;
7475;SDS011;3779;49.216;8.650;2022-10-16T19:05:34;9.27;;;2.53;;
7475;SDS011;3779;49.216;8.650;2022-10-16T19:08:20;5.93;;;2.70;;
7475;SDS011;3779;49.216;8.650;2022-10-16T19:11:13;4.07;;;2.78;;
7475;SDS011;3779;49.216;8.650;2022-10-16T19:14:01;4.93;;;2.90;;
7475;SDS011;3779;49.216;8.650;2022-10-16T19:16:47;7.05;;;2.65;;
7475;SDS011;3779;49.216;8.650;2022-10-16T19:19:33;8.07;;;2.33;;
7475;SDS011;3779;49.216;8.650;2022-10-16T19:22:19;3.25;;;1.88;;